METAR Data

Data at: 2135 UTC 26 Feb 2020

METAR for:KBML (Berlin Muni, NH, US)
Text:KBML 262052Z AUTO 09004KT 10SM OVC041 06/M03 A2995 RMK AO2 SLP152 T00561028 56009
Temperature: 5.6°C ( 42°F)
Dewpoint: -2.8°C ( 27°F) [RH = 55%]
Pressure (altimeter):29.95 inches Hg (1014.3 mb) [Sea level pressure: 1015.2 mb]
Winds:from the E (90 degrees) at 5 MPH (4 knots; 2.1 m/s)
Visibility:10 or more sm (16+ km)
Ceiling:4100 feet AGL
Clouds: overcast cloud deck at 4100 feet AGL
QC Flag:automated observation with no human augmentation